Time;durP1;ratioP1;P1;durP2;ratioP2;P2;SDS_P1;SDS_P2;PMS_P1;PMS_P2;Temp;Humidity;BMP_temperature;BMP_pressure;BME280_temperature;BME280_humidity;BME280_pressure;Samples;Min_cycle;Max_cycle;Signal;HPM_P1;HPM_P2
2022/01/30 00:01:57;;;;;;;3.60;3.20;;;;;;;;;;5052754;28;20447;-56
2022/01/30 00:04:23;;;;;;;3.20;2.93;;;;;;;;;;5052950;28;20439;-55
2022/01/30 00:06:49;;;;;;;3.47;3.17;;;;;;;;;;5052903;28;20877;-54
2022/01/30 00:09:21;;;;;;;3.37;2.80;;;;;;;;;;5051524;28;20515;-58
2022/01/30 00:11:53;;;;;;;5.93;3.30;;;;;;;;;;5052984;28;20404;-53
2022/01/30 00:14:20;;;;;;;3.60;2.83;;;;;;;;;;5052745;28;20455;-54
2022/01/30 00:16:55;;;;;;;3.10;2.90;;;;;;;;;;5052598;28;20510;-55
2022/01/30 00:19:45;;;;;;;4.53;3.17;;;;;;;;;;5052894;28;20410;-55
2022/01/30 00:22:37;;;;;;;8.00;2.80;;;;;;;;;;5052429;28;20415;-53
2022/01/30 00:25:06;;;;;;;3.10;2.90;;;;;;;;;;5052356;28;20522;-54
2022/01/30 00:27:44;;;;;;;4.10;2.77;;;;;;;;;;5052712;28;20471;-54
2022/01/30 00:30:13;;;;;;;5.00;3.30;;;;;;;;;;5052769;28;20436;-54
2022/01/30 00:32:39;;;;;;;3.40;2.90;;;;;;;;;;5052525;28;20601;-56
2022/01/30 00:35:05;;;;;;;3.00;2.80;;;;;;;;;;5052467;28;20435;-56
2022/01/30 00:37:31;;;;;;;2.87;2.70;;;;;;;;;;5052436;28;20912;-54
2022/01/30 00:39:57;;;;;;;7.53;3.50;;;;;;;;;;5052584;28;20419;-55
2022/01/30 00:42:24;;;;;;;11.10;3.30;;;;;;;;;;5052264;28;20422;-57
2022/01/30 00:44:49;;;;;;;5.70;3.30;;;;;;;;;;5056042;28;20407;-54
2022/01/30 00:47:15;;;;;;;5.37;3.07;;;;;;;;;;5056612;28;20878;-55
2022/01/30 00:49:41;;;;;;;3.77;3.47;;;;;;;;;;5054899;28;20427;-54
2022/01/30 00:52:10;;;;;;;4.07;3.70;;;;;;;;;;5056190;28;20505;-54
2022/01/30 00:54:36;;;;;;;5.20;3.10;;;;;;;;;;5056339;28;20408;-55
2022/01/30 00:57:02;;;;;;;3.10;2.90;;;;;;;;;;5056129;28;20419;-54
2022/01/30 00:59:28;;;;;;;3.40;3.10;;;;;;;;;;5056120;28;20407;-54
2022/01/30 01:01:54;;;;;;;7.67;4.20;;;;;;;;;;5054619;28;20426;-55
2022/01/30 01:04:20;;;;;;;3.57;3.30;;;;;;;;;;5038181;28;20438;-54
2022/01/30 01:06:49;;;;;;;10.67;3.50;;;;;;;;;;5054621;28;20499;-59
2022/01/30 01:09:16;;;;;;;5.23;3.20;;;;;;;;;;5056267;28;20903;-54
2022/01/30 01:25:25;;;;;;;13.10;4.10;;;;;;;;;;5055570;28;20566;-58
2022/01/30 01:27:51;;;;;;;8.53;4.13;;;;;;;;;;5055455;28;20553;-55
2022/01/30 01:30:17;;;;;;;4.20;3.13;;;;;;;;;;5055673;28;20415;-56
2022/01/30 01:32:43;;;;;;;10.93;3.70;;;;;;;;;;5055712;28;20493;-54
2022/01/30 01:35:09;;;;;;;7.80;3.93;;;;;;;;;;5055343;28;20422;-55
2022/01/30 01:37:35;;;;;;;6.67;4.50;;;;;;;;;;5055332;28;20889;-64
2022/01/30 01:40:01;;;;;;;17.77;3.90;;;;;;;;;;5055234;28;20416;-61
2022/01/30 01:42:32;;;;;;;13.23;4.57;;;;;;;;;;5055468;28;20404;-58
2022/01/30 01:44:59;;;;;;;5.67;3.27;;;;;;;;;;5055466;28;20399;-55
2022/01/30 01:47:29;;;;;;;9.80;3.60;;;;;;;;;;5055291;28;20463;-58
2022/01/30 01:49:55;;;;;;;18.37;4.13;;;;;;;;;;5053784;28;20411;-55
2022/01/30 01:52:23;;;;;;;9.83;4.50;;;;;;;;;;5055021;28;20461;-56
2022/01/30 01:54:52;;;;;;;16.03;4.13;;;;;;;;;;5055172;28;20900;-55
2022/01/30 01:57:19;;;;;;;8.93;3.60;;;;;;;;;;5055441;28;20442;-59
2022/01/30 01:59:45;;;;;;;14.70;3.60;;;;;;;;;;5055054;28;20457;-66
2022/01/30 02:02:11;;;;;;;8.60;3.70;;;;;;;;;;5054767;28;20416;-56
2022/01/30 02:04:40;;;;;;;11.57;3.80;;;;;;;;;;5055033;28;20408;-55
2022/01/30 02:09:33;;;;;;;13.63;4.17;;;;;;;;;;5055057;28;20412;-57
2022/01/30 02:12:01;;;;;;;7.90;3.80;;;;;;;;;;5054666;28;20486;-59
2022/01/30 02:14:40;;;;;;;8.97;3.47;;;;;;;;;;5054614;28;20407;-56
2022/01/30 02:25:38;;;;;;;5.17;3.37;;;;;;;;;;5054591;28;20538;-56
2022/01/30 02:28:10;;;;;;;4.13;3.30;;;;;;;;;;5054557;28;20493;-57
2022/01/30 02:30:39;;;;;;;3.33;3.00;;;;;;;;;;5054573;28;20411;-57
2022/01/30 02:33:05;;;;;;;5.50;4.03;;;;;;;;;;5054428;28;20415;-55
2022/01/30 02:35:31;;;;;;;4.40;3.40;;;;;;;;;;5054295;28;20496;-58
2022/01/30 02:37:59;;;;;;;10.63;3.63;;;;;;;;;;5052878;28;20416;-64
2022/01/30 02:40:26;;;;;;;8.23;3.73;;;;;;;;;;5052849;28;20772;-57
2022/01/30 02:42:53;;;;;;;6.23;4.00;;;;;;;;;;5054155;28;20434;-59
2022/01/30 02:45:22;;;;;;;9.03;3.57;;;;;;;;;;5054358;28;20453;-58
2022/01/30 02:50:36;;;;;;;11.43;3.50;;;;;;;;;;5054198;28;20403;-57
2022/01/30 02:53:07;;;;;;;4.03;3.67;;;;;;;;;;5054052;28;20415;-60
2022/01/30 02:55:33;;;;;;;15.70;4.33;;;;;;;;;;5053852;28;20404;-56
2022/01/30 02:57:59;;;;;;;8.30;3.90;;;;;;;;;;5053740;28;20412;-56
2022/01/30 03:00:25;;;;;;;7.87;3.63;;;;;;;;;;5053681;28;20404;-56
2022/01/30 03:02:51;;;;;;;9.07;4.10;;;;;;;;;;5053590;28;20403;-54
2022/01/30 03:05:17;;;;;;;13.30;3.90;;;;;;;;;;5053672;28;20404;-56
2022/01/30 03:07:43;;;;;;;9.70;3.57;;;;;;;;;;5053192;28;20829;-59
2022/01/30 03:10:11;;;;;;;3.90;3.77;;;;;;;;;;5052261;28;20494;-55
2022/01/30 03:12:37;;;;;;;4.07;3.67;;;;;;;;;;5053572;28;20420;-55
2022/01/30 03:15:03;;;;;;;5.13;4.27;;;;;;;;;;5053618;28;20415;-61
2022/01/30 03:17:29;;;;;;;13.40;4.70;;;;;;;;;;5054042;28;20419;-62
2022/01/30 03:19:55;;;;;;;9.43;4.17;;;;;;;;;;5053526;28;20407;-56
2022/01/30 03:22:21;;;;;;;6.60;3.17;;;;;;;;;;5053559;28;20420;-58
2022/01/30 03:24:47;;;;;;;8.83;3.93;;;;;;;;;;5053605;28;20412;-68
2022/01/30 03:27:14;;;;;;;8.00;4.30;;;;;;;;;;5053239;28;20471;-64
2022/01/30 03:29:41;;;;;;;4.50;3.47;;;;;;;;;;5053499;28;20418;-65
2022/01/30 03:32:07;;;;;;;5.97;3.67;;;;;;;;;;5053550;28;20498;-64
2022/01/30 03:34:33;;;;;;;5.43;3.40;;;;;;;;;;5053593;28;20416;-64
2022/01/30 03:37:00;;;;;;;6.03;3.10;;;;;;;;;;5053159;28;20448;-57
2022/01/30 03:39:27;;;;;;;5.40;3.50;;;;;;;;;;5053388;28;20807;-57
2022/01/30 03:41:53;;;;;;;8.30;3.40;;;;;;;;;;5053237;28;20469;-69
2022/01/30 03:44:19;;;;;;;4.37;3.13;;;;;;;;;;5053172;28;20411;-60
2022/01/30 03:46:45;;;;;;;12.27;4.10;;;;;;;;;;5051726;28;20463;-56
2022/01/30 03:49:11;;;;;;;5.97;3.30;;;;;;;;;;5052909;28;20472;-67
2022/01/30 03:51:37;;;;;;;5.70;3.47;;;;;;;;;;5053019;28;20502;-64
2022/01/30 03:54:03;;;;;;;10.33;4.33;;;;;;;;;;5051630;28;20415;-53
2022/01/30 03:56:29;;;;;;;6.70;3.60;;;;;;;;;;5052880;28;20493;-54
2022/01/30 03:58:55;;;;;;;6.60;3.53;;;;;;;;;;5051662;28;20423;-56
2022/01/30 04:01:21;;;;;;;16.73;4.80;;;;;;;;;;5052777;28;20411;-55
2022/01/30 04:03:47;;;;;;;3.53;3.20;;;;;;;;;;5052936;28;20419;-56
2022/01/30 04:06:13;;;;;;;7.43;4.30;;;;;;;;;;5052580;28;20819;-58
2022/01/30 04:08:39;;;;;;;5.23;3.93;;;;;;;;;;5052521;28;20868;-55
2022/01/30 04:11:05;;;;;;;10.30;3.83;;;;;;;;;;5052873;28;20760;-53
2022/01/30 04:13:31;;;;;;;12.40;4.20;;;;;;;;;;5052589;28;20427;-56
2022/01/30 04:15:57;;;;;;;5.90;3.60;;;;;;;;;;5052553;28;20885;-58
2022/01/30 04:18:24;;;;;;;9.80;3.20;;;;;;;;;;5053926;28;20512;-56
2022/01/30 04:20:51;;;;;;;7.70;3.83;;;;;;;;;;5056813;28;20435;-54
2022/01/30 04:23:17;;;;;;;3.77;3.03;;;;;;;;;;5056627;28;20455;-53
2022/01/30 04:25:43;;;;;;;18.70;3.83;;;;;;;;;;5056591;28;20408;-52
2022/01/30 04:28:09;;;;;;;6.23;3.07;;;;;;;;;;5056612;28;20477;-56
2022/01/30 04:30:35;;;;;;;3.93;3.30;;;;;;;;;;5056473;28;20919;-53
2022/01/30 04:33:01;;;;;;;4.80;3.60;;;;;;;;;;5056492;28;20411;-60
2022/01/30 04:35:30;;;;;;;3.47;3.27;;;;;;;;;;5056420;28;20400;-58
2022/01/30 04:38:03;;;;;;;3.67;3.37;;;;;;;;;;5056348;28;20415;-61
2022/01/30 04:55:06;;;;;;;3.93;3.33;;;;;;;;;;5056164;28;20415;-54
2022/01/30 05:00:25;;;;;;;5.43;3.60;;;;;;;;;;5056469;28;20411;-56
2022/01/30 05:08:03;;;;;;;6.20;3.40;;;;;;;;;;5055885;28;20517;-58
2022/01/30 05:10:29;;;;;;;10.00;3.60;;;;;;;;;;5054584;28;20506;-54
2022/01/30 05:12:56;;;;;;;3.60;3.30;;;;;;;;;;5055687;28;20446;-60
2022/01/30 05:15:22;;;;;;;4.20;3.67;;;;;;;;;;5056007;28;20411;-55
2022/01/30 05:17:49;;;;;;;10.03;3.60;;;;;;;;;;5055903;28;20418;-55
2022/01/30 05:20:15;;;;;;;3.20;2.90;;;;;;;;;;5055735;28;20404;-55
2022/01/30 05:22:41;;;;;;;6.90;3.47;;;;;;;;;;5055471;28;20451;-55
2022/01/30 05:25:08;;;;;;;9.20;4.30;;;;;;;;;;5055556;28;20419;-56
2022/01/30 05:27:34;;;;;;;7.23;3.30;;;;;;;;;;5054186;28;20467;-56
2022/01/30 05:30:00;;;;;;;7.00;3.77;;;;;;;;;;5055083;28;20434;-56
2022/01/30 05:32:26;;;;;;;5.03;3.97;;;;;;;;;;5055289;28;20420;-55
2022/01/30 05:34:52;;;;;;;9.50;4.00;;;;;;;;;;5055344;28;20408;-55
2022/01/30 05:37:19;;;;;;;13.70;4.60;;;;;;;;;;5055408;28;20434;-54
2022/01/30 05:39:45;;;;;;;5.97;3.60;;;;;;;;;;5055483;28;20407;-55
2022/01/30 05:42:13;;;;;;;6.57;3.83;;;;;;;;;;5055243;28;20411;-55
2022/01/30 05:47:36;;;;;;;6.67;3.80;;;;;;;;;;5044946;28;20972;-55
2022/01/30 05:50:02;;;;;;;4.80;3.60;;;;;;;;;;5055034;28;20930;-54
2022/01/30 05:52:28;;;;;;;6.63;3.53;;;;;;;;;;5055027;28;20419;-53
2022/01/30 05:54:54;;;;;;;7.67;4.33;;;;;;;;;;5055201;28;20411;-55
2022/01/30 05:57:20;;;;;;;6.83;3.80;;;;;;;;;;5055018;28;20461;-54
2022/01/30 05:59:46;;;;;;;11.47;4.00;;;;;;;;;;5055073;28;20410;-55
2022/01/30 06:02:12;;;;;;;7.50;3.27;;;;;;;;;;5054795;28;20412;-53
2022/01/30 06:04:38;;;;;;;4.70;3.07;;;;;;;;;;5054810;28;20411;-55
2022/01/30 06:07:06;;;;;;;9.07;4.10;;;;;;;;;;5054881;28;20463;-54
2022/01/30 06:09:32;;;;;;;8.40;3.90;;;;;;;;;;5054681;28;20534;-56
2022/01/30 06:11:58;;;;;;;6.53;4.23;;;;;;;;;;5054628;28;20907;-54
2022/01/30 06:14:24;;;;;;;5.80;3.33;;;;;;;;;;5054709;28;20439;-56
2022/01/30 06:16:53;;;;;;;3.63;3.33;;;;;;;;;;5054630;28;20403;-56
2022/01/30 06:19:19;;;;;;;5.63;3.50;;;;;;;;;;5054629;28;20416;-56
2022/01/30 06:21:45;;;;;;;5.90;3.90;;;;;;;;;;5053298;28;20420;-53
2022/01/30 06:24:11;;;;;;;7.37;3.43;;;;;;;;;;5054300;28;20502;-56
2022/01/30 06:26:37;;;;;;;8.80;4.30;;;;;;;;;;5054294;28;20483;-60
2022/01/30 06:29:03;;;;;;;15.17;4.50;;;;;;;;;;5054488;28;20415;-58
2022/01/30 06:31:29;;;;;;;13.90;4.17;;;;;;;;;;5054353;28;20400;-57
2022/01/30 06:33:55;;;;;;;12.10;5.07;;;;;;;;;;5054242;28;20427;-59
2022/01/30 06:36:21;;;;;;;11.30;4.13;;;;;;;;;;5054301;28;20461;-59
2022/01/30 06:38:47;;;;;;;7.97;3.80;;;;;;;;;;5054480;28;20411;-57
2022/01/30 06:41:13;;;;;;;21.77;4.40;;;;;;;;;;5053327;28;20896;-58
2022/01/30 06:43:39;;;;;;;5.63;4.00;;;;;;;;;;5053137;28;20416;-58
2022/01/30 06:46:05;;;;;;;5.87;3.97;;;;;;;;;;5053981;28;20768;-58
2022/01/30 06:48:31;;;;;;;9.40;4.17;;;;;;;;;;5053834;28;21002;-59
2022/01/30 06:50:57;;;;;;;14.10;4.60;;;;;;;;;;5053961;28;20403;-58
2022/01/30 06:53:24;;;;;;;13.03;4.63;;;;;;;;;;5053877;28;20769;-53
2022/01/30 06:55:50;;;;;;;11.37;3.60;;;;;;;;;;5053739;28;20408;-55
2022/01/30 06:58:16;;;;;;;13.20;4.60;;;;;;;;;;5053798;28;20408;-57
2022/01/30 07:00:42;;;;;;;18.30;4.97;;;;;;;;;;5053283;28;20905;-56
2022/01/30 07:03:08;;;;;;;12.77;4.90;;;;;;;;;;5053293;28;20948;-56
2022/01/30 07:05:34;;;;;;;10.13;4.60;;;;;;;;;;5053140;28;20513;-56
2022/01/30 07:08:00;;;;;;;16.53;4.57;;;;;;;;;;5052978;28;20463;-57
2022/01/30 07:10:26;;;;;;;6.30;4.50;;;;;;;;;;5053392;28;20881;-53
2022/01/30 07:12:52;;;;;;;9.53;4.43;;;;;;;;;;5052877;28;20425;-54
2022/01/30 07:15:18;;;;;;;7.47;3.63;;;;;;;;;;5052902;28;20770;-53
2022/01/30 07:17:44;;;;;;;15.73;5.13;;;;;;;;;;5053059;28;20814;-53
2022/01/30 07:20:11;;;;;;;13.83;4.90;;;;;;;;;;5052998;28;20427;-57
2022/01/30 07:22:37;;;;;;;9.20;4.33;;;;;;;;;;5052497;28;20470;-53
2022/01/30 07:25:07;;;;;;;7.87;4.33;;;;;;;;;;5052558;28;20509;-58
2022/01/30 07:27:35;;;;;;;19.93;5.20;;;;;;;;;;5051194;28;20570;-54
2022/01/30 07:30:01;;;;;;;13.53;3.93;;;;;;;;;;5052800;28;20437;-53
2022/01/30 07:32:27;;;;;;;9.90;4.30;;;;;;;;;;5052384;28;20408;-57
2022/01/30 07:34:53;;;;;;;7.60;4.17;;;;;;;;;;5052661;28;20418;-54
2022/01/30 07:37:19;;;;;;;15.97;6.00;;;;;;;;;;5052813;28;20430;-55
2022/01/30 07:39:45;;;;;;;10.07;4.27;;;;;;;;;;5052638;28;20454;-64
2022/01/30 07:42:12;;;;;;;6.77;4.53;;;;;;;;;;5052433;28;20411;-64
2022/01/30 07:44:38;;;;;;;12.60;6.00;;;;;;;;;;5052301;28;20407;-63
2022/01/30 07:47:05;;;;;;;15.77;4.50;;;;;;;;;;5052151;28;20467;-61
2022/01/30 07:49:31;;;;;;;15.60;5.43;;;;;;;;;;5052259;28;20448;-70
2022/01/30 07:51:57;;;;;;;11.60;4.90;;;;;;;;;;5052109;28;20400;-60
2022/01/30 07:54:23;;;;;;;21.53;5.57;;;;;;;;;;5052110;28;20947;-68
2022/01/30 07:56:49;;;;;;;14.00;5.70;;;;;;;;;;5052366;28;20431;-67
2022/01/30 07:59:15;;;;;;;11.77;5.97;;;;;;;;;;5052325;28;20408;-69
2022/01/30 08:01:41;;;;;;;11.03;4.73;;;;;;;;;;5052028;28;20415;-69
2022/01/30 08:04:07;;;;;;;14.23;4.77;;;;;;;;;;5052076;28;20407;-64
2022/01/30 08:06:36;;;;;;;9.53;4.57;;;;;;;;;;5051858;28;20407;-66
2022/01/30 08:09:03;;;;;;;8.57;3.80;;;;;;;;;;5051914;28;20411;-59
2022/01/30 08:11:28;;;;;;;14.43;5.63;;;;;;;;;;5051971;28;20399;-62
2022/01/30 08:13:54;;;;;;;14.47;5.63;;;;;;;;;;5051919;28;20880;-62
2022/01/30 08:16:21;;;;;;;8.00;4.20;;;;;;;;;;5051831;28;20399;-56
2022/01/30 08:18:47;;;;;;;8.10;4.63;;;;;;;;;;5051761;28;20465;-61
2022/01/30 08:21:13;;;;;;;14.40;4.67;;;;;;;;;;5050274;28;20920;-59
2022/01/30 08:23:39;;;;;;;15.03;4.70;;;;;;;;;;5051608;28;20459;-63
2022/01/30 08:26:05;;;;;;;10.23;4.50;;;;;;;;;;5051646;28;20918;-61
2022/01/30 08:28:31;;;;;;;14.43;4.67;;;;;;;;;;5051636;28;20506;-61
2022/01/30 08:30:57;;;;;;;19.33;5.27;;;;;;;;;;5051736;28;20451;-57
2022/01/30 08:33:23;;;;;;;6.67;4.53;;;;;;;;;;5051486;28;20885;-55
2022/01/30 08:35:50;;;;;;;11.83;5.40;;;;;;;;;;5051630;28;20579;-54
2022/01/30 08:38:17;;;;;;;14.63;5.27;;;;;;;;;;5051547;28;20436;-56
2022/01/30 08:40:43;;;;;;;8.73;4.60;;;;;;;;;;5051776;28;20460;-57
2022/01/30 08:43:09;;;;;;;5.97;3.80;;;;;;;;;;5051668;28;20666;-57
2022/01/30 08:45:35;;;;;;;19.10;5.37;;;;;;;;;;5051568;28;20959;-60
2022/01/30 08:48:01;;;;;;;10.13;5.23;;;;;;;;;;5051333;28;20609;-56
2022/01/30 08:50:27;;;;;;;9.87;4.40;;;;;;;;;;5051318;28;20457;-55
2022/01/30 08:52:53;;;;;;;12.83;4.97;;;;;;;;;;5051404;28;20416;-57
2022/01/30 08:55:20;;;;;;;13.87;4.47;;;;;;;;;;5051443;28;20404;-57
2022/01/30 08:57:46;;;;;;;19.27;4.93;;;;;;;;;;5051600;28;20415;-61
2022/01/30 09:00:13;;;;;;;9.97;4.63;;;;;;;;;;5051548;28;20412;-56
2022/01/30 09:02:39;;;;;;;14.77;4.70;;;;;;;;;;5051751;28;20411;-63
2022/01/30 09:05:08;;;;;;;13.60;4.80;;;;;;;;;;5054198;28;20410;-57
2022/01/30 09:07:35;;;;;;;7.90;4.00;;;;;;;;;;5055207;28;21022;-58
2022/01/30 09:10:01;;;;;;;17.53;5.83;;;;;;;;;;5055531;28;20737;-57
2022/01/30 09:12:27;;;;;;;14.70;4.20;;;;;;;;;;5055158;28;20430;-55
2022/01/30 09:14:53;;;;;;;7.73;3.93;;;;;;;;;;5055206;28;20400;-54
2022/01/30 09:17:20;;;;;;;13.63;4.60;;;;;;;;;;5055467;28;20573;-54
2022/01/30 09:19:46;;;;;;;9.40;4.37;;;;;;;;;;5055366;28;20474;-55
2022/01/30 09:22:14;;;;;;;11.10;4.60;;;;;;;;;;5055022;28;20764;-57
2022/01/30 09:24:40;;;;;;;18.60;5.30;;;;;;;;;;5054785;28;20508;-55
2022/01/30 09:27:07;;;;;;;12.53;5.17;;;;;;;;;;5053595;28;20804;-57
2022/01/30 09:29:33;;;;;;;32.37;5.60;;;;;;;;;;5054816;28;20415;-56
2022/01/30 09:32:00;;;;;;;11.53;5.60;;;;;;;;;;5053688;28;20828;-57
2022/01/30 09:34:26;;;;;;;12.17;4.47;;;;;;;;;;5054980;28;20762;-56
2022/01/30 09:36:52;;;;;;;13.17;4.50;;;;;;;;;;5054861;28;20415;-61
2022/01/30 09:39:18;;;;;;;12.87;4.20;;;;;;;;;;5055247;28;20518;-57
2022/01/30 09:41:44;;;;;;;17.57;5.70;;;;;;;;;;5054606;28;20415;-56
2022/01/30 09:44:11;;;;;;;9.47;4.87;;;;;;;;;;5054475;28;20408;-69
2022/01/30 09:46:39;;;;;;;12.80;4.67;;;;;;;;;;5054451;28;20499;-59
2022/01/30 09:49:07;;;;;;;17.17;5.00;;;;;;;;;;5054769;28;20420;-61
2022/01/30 09:51:34;;;;;;;18.43;5.70;;;;;;;;;;5054509;28;20419;-59
2022/01/30 09:54:01;;;;;;;16.53;5.90;;;;;;;;;;5054647;28;20500;-55
2022/01/30 09:56:29;;;;;;;11.60;5.30;;;;;;;;;;5054397;28;20841;-55
2022/01/30 09:58:55;;;;;;;16.23;5.17;;;;;;;;;;5053003;28;20545;-58
2022/01/30 10:01:21;;;;;;;18.00;5.37;;;;;;;;;;5054421;28;20435;-63
2022/01/30 10:03:48;;;;;;;19.33;5.83;;;;;;;;;;5052942;28;20411;-56
2022/01/30 10:06:18;;;;;;;9.67;5.10;;;;;;;;;;5054223;28;20416;-55
2022/01/30 10:08:46;;;;;;;11.23;4.70;;;;;;;;;;5054027;28;20467;-59
2022/01/30 10:11:31;;;;;;;26.00;5.67;;;;;;;;;;5054340;28;20792;-62
2022/01/30 10:14:04;;;;;;;19.67;5.00;;;;;;;;;;5053888;28;20938;-56
2022/01/30 10:16:37;;;;;;;13.23;5.30;;;;;;;;;;5052853;28;20400;-58
2022/01/30 10:19:11;;;;;;;17.47;5.50;;;;;;;;;;5052596;28;20477;-62
2022/01/30 10:21:37;;;;;;;13.90;5.60;;;;;;;;;;5054233;28;20403;-55
2022/01/30 10:24:17;;;;;;;9.03;4.73;;;;;;;;;;5052381;28;20464;-54
2022/01/30 10:26:43;;;;;;;25.53;6.70;;;;;;;;;;5053636;28;20904;-55
2022/01/30 10:29:19;;;;;;;21.50;4.97;;;;;;;;;;5053862;28;20418;-56
2022/01/30 10:31:57;;;;;;;15.87;5.43;;;;;;;;;;5053905;28;20498;-57
2022/01/30 10:34:23;;;;;;;20.87;8.20;;;;;;;;;;5052338;28;20939;-55
2022/01/30 10:36:49;;;;;;;15.40;5.57;;;;;;;;;;5052528;28;20490;-57
2022/01/30 10:39:22;;;;;;;15.37;6.00;;;;;;;;;;5053760;28;20443;-56
2022/01/30 10:41:54;;;;;;;15.70;5.87;;;;;;;;;;5053620;28;20927;-55
2022/01/30 10:44:20;;;;;;;15.57;5.03;;;;;;;;;;5053798;28;20461;-57
2022/01/30 10:46:48;;;;;;;13.87;5.17;;;;;;;;;;5053686;28;20493;-56
2022/01/30 10:49:21;;;;;;;16.50;6.27;;;;;;;;;;5053434;28;20419;-61
2022/01/30 10:51:53;;;;;;;18.03;5.60;;;;;;;;;;5053537;28;20411;-57
2022/01/30 10:54:19;;;;;;;14.30;4.70;;;;;;;;;;5053541;28;20416;-61
2022/01/30 10:56:45;;;;;;;17.47;5.10;;;;;;;;;;5052142;28;20403;-55
2022/01/30 10:59:15;;;;;;;17.83;5.30;;;;;;;;;;5053363;28;20876;-60
2022/01/30 11:01:48;;;;;;;23.47;6.00;;;;;;;;;;5053279;28;20899;-57
2022/01/30 11:04:23;;;;;;;12.10;4.70;;;;;;;;;;5053472;28;20763;-59
2022/01/30 11:06:50;;;;;;;12.57;5.20;;;;;;;;;;5053354;28;20860;-64
2022/01/30 11:09:21;;;;;;;11.77;4.90;;;;;;;;;;5051859;28;20753;-58
2022/01/30 11:12:04;;;;;;;13.23;5.70;;;;;;;;;;5053281;28;20408;-66
2022/01/30 11:14:40;;;;;;;19.77;5.53;;;;;;;;;;5053354;28;20495;-72
2022/01/30 11:17:08;;;;;;;27.10;5.50;;;;;;;;;;5053133;28;20510;-64
2022/01/30 11:19:44;;;;;;;15.80;5.10;;;;;;;;;;5052946;28;20893;-61
2022/01/30 11:22:13;;;;;;;21.47;5.83;;;;;;;;;;5052872;28;20979;-60
2022/01/30 11:24:59;;;;;;;25.20;5.50;;;;;;;;;;5052640;28;20456;-57
2022/01/30 11:27:25;;;;;;;20.23;6.00;;;;;;;;;;5052349;28;20537;-65
2022/01/30 11:29:52;;;;;;;15.93;5.57;;;;;;;;;;5051401;28;20899;-59
2022/01/30 11:32:19;;;;;;;20.80;5.00;;;;;;;;;;5053016;28;20438;-58
2022/01/30 11:34:45;;;;;;;16.73;5.10;;;;;;;;;;5052660;28;20822;-67
2022/01/30 11:37:14;;;;;;;15.77;6.30;;;;;;;;;;5052669;28;20404;-60
2022/01/30 11:39:44;;;;;;;14.93;4.97;;;;;;;;;;5051228;28;20424;-58
2022/01/30 11:42:10;;;;;;;16.03;5.00;;;;;;;;;;5052450;28;20412;-72
2022/01/30 11:44:37;;;;;;;14.30;5.40;;;;;;;;;;5052722;28;20498;-65
2022/01/30 11:47:03;;;;;;;24.93;6.43;;;;;;;;;;5051162;28;20463;-59
2022/01/30 11:49:38;;;;;;;13.33;5.20;;;;;;;;;;5052391;28;20403;-69
2022/01/30 11:52:06;;;;;;;16.07;5.23;;;;;;;;;;5050979;28;20427;-69
2022/01/30 11:54:42;;;;;;;19.33;5.30;;;;;;;;;;5052563;28;20469;-63
2022/01/30 11:57:21;;;;;;;12.30;4.50;;;;;;;;;;5052134;28;20412;-69
2022/01/30 11:59:48;;;;;;;14.50;5.10;;;;;;;;;;5052288;28;20760;-66
2022/01/30 12:02:30;;;;;;;29.60;6.67;;;;;;;;;;5050804;28;20430;-60
2022/01/30 12:05:09;;;;;;;24.93;5.77;;;;;;;;;;5052094;28;20415;-64
2022/01/30 12:07:39;;;;;;;15.57;4.63;;;;;;;;;;5052026;28;20475;-66
2022/01/30 12:10:26;;;;;;;15.00;5.00;;;;;;;;;;5052003;28;20419;-60
2022/01/30 12:12:52;;;;;;;15.33;5.93;;;;;;;;;;5052039;28;20439;-65
2022/01/30 12:15:36;;;;;;;27.73;5.40;;;;;;;;;;5052068;28;20779;-70
2022/01/30 12:18:03;;;;;;;21.93;4.23;;;;;;;;;;5050442;28;20469;-61
2022/01/30 12:20:31;;;;;;;31.50;5.50;;;;;;;;;;5051768;28;20396;-60
2022/01/30 12:22:57;;;;;;;19.87;5.33;;;;;;;;;;5051801;28;20485;-63
2022/01/30 12:25:31;;;;;;;22.60;5.77;;;;;;;;;;5052122;28;20411;-63
2022/01/30 12:28:07;;;;;;;18.53;5.63;;;;;;;;;;5050492;28;20470;-61
2022/01/30 12:30:33;;;;;;;13.40;4.60;;;;;;;;;;5051832;28;20443;-67
2022/01/30 12:32:59;;;;;;;18.50;5.57;;;;;;;;;;5051826;28;20791;-65
2022/01/30 12:35:25;;;;;;;8.80;4.60;;;;;;;;;;5051777;28;20450;-60
2022/01/30 12:37:51;;;;;;;13.43;4.70;;;;;;;;;;5051925;28;20408;-70
2022/01/30 12:40:18;;;;;;;20.13;6.00;;;;;;;;;;5055098;28;20415;-64
2022/01/30 12:42:45;;;;;;;19.97;6.70;;;;;;;;;;5055824;28;20830;-58
2022/01/30 12:45:12;;;;;;;18.50;6.10;;;;;;;;;;5055588;28;20416;-62
2022/01/30 12:47:47;;;;;;;21.07;6.57;;;;;;;;;;5055324;28;20467;-74
2022/01/30 12:50:14;;;;;;;25.27;5.50;;;;;;;;;;5055786;28;20406;-60
2022/01/30 12:52:40;;;;;;;21.60;6.60;;;;;;;;;;5055535;28;20447;-65
2022/01/30 12:55:11;;;;;;;28.57;6.27;;;;;;;;;;5055682;28;20548;-74
2022/01/30 12:57:39;;;;;;;19.73;4.80;;;;;;;;;;5055223;28;20411;-72
2022/01/30 13:00:07;;;;;;;13.03;5.27;;;;;;;;;;5054222;28;20403;-62
2022/01/30 13:02:37;;;;;;;17.37;6.10;;;;;;;;;;5055332;28;20473;-61
2022/01/30 13:05:04;;;;;;;50.13;7.27;;;;;;;;;;5054058;28;20871;-62
2022/01/30 13:07:30;;;;;;;13.87;4.60;;;;;;;;;;5055270;28;20501;-70
2022/01/30 13:10:23;;;;;;;21.13;6.10;;;;;;;;;;5055347;28;20416;-58
2022/01/30 13:12:49;;;;;;;17.23;4.77;;;;;;;;;;5054026;28;20438;-58
2022/01/30 13:15:16;;;;;;;18.60;5.70;;;;;;;;;;5055419;28;20411;-60
2022/01/30 13:17:42;;;;;;;25.90;6.13;;;;;;;;;;5053943;28;20811;-57
2022/01/30 13:20:12;;;;;;;19.47;6.30;;;;;;;;;;5055153;28;20407;-57
2022/01/30 13:22:40;;;;;;;18.87;5.90;;;;;;;;;;5054879;28;20945;-57
2022/01/30 13:25:10;;;;;;;29.93;6.70;;;;;;;;;;5055312;28;20414;-56
2022/01/30 13:27:39;;;;;;;33.13;6.50;;;;;;;;;;5054874;28;20467;-58
2022/01/30 13:30:06;;;;;;;26.67;6.80;;;;;;;;;;5055148;28;20408;-57
2022/01/30 13:32:32;;;;;;;12.10;4.40;;;;;;;;;;5054944;28;20435;-58
2022/01/30 13:34:58;;;;;;;8.97;4.80;;;;;;;;;;5054824;28;20404;-60
2022/01/30 13:37:25;;;;;;;15.43;6.30;;;;;;;;;;5054839;28;20473;-62
2022/01/30 13:40:04;;;;;;;20.00;5.70;;;;;;;;;;5054815;28;20457;-56
2022/01/30 13:47:51;;;;;;;26.13;6.87;;;;;;;;;;5054774;28;20545;-56
2022/01/30 13:50:18;;;;;;;20.10;6.87;;;;;;;;;;5054120;28;20418;-54
2022/01/30 13:52:44;;;;;;;16.93;4.90;;;;;;;;;;5054365;28;20419;-56
2022/01/30 13:55:10;;;;;;;14.57;5.53;;;;;;;;;;5054215;28;20415;-58
2022/01/30 13:57:37;;;;;;;27.87;6.27;;;;;;;;;;5054063;28;20404;-58
2022/01/30 14:00:04;;;;;;;18.00;5.63;;;;;;;;;;5054132;28;20764;-58
2022/01/30 14:02:30;;;;;;;31.03;6.80;;;;;;;;;;5054205;28;20407;-55
2022/01/30 14:05:16;;;;;;;25.60;6.10;;;;;;;;;;5053980;28;20418;-59
2022/01/30 14:07:42;;;;;;;21.50;6.00;;;;;;;;;;5053739;28;20462;-56
2022/01/30 14:10:08;;;;;;;28.00;6.57;;;;;;;;;;5053936;28;20506;-65
2022/01/30 14:12:39;;;;;;;19.80;5.70;;;;;;;;;;5053894;28;20487;-63
2022/01/30 14:15:10;;;;;;;22.50;6.07;;;;;;;;;;5054075;28;20422;-58
2022/01/30 14:17:42;;;;;;;16.83;6.00;;;;;;;;;;5036613;28;20415;-59
2022/01/30 14:20:11;;;;;;;22.97;5.30;;;;;;;;;;5053780;28;20421;-64
2022/01/30 14:22:37;;;;;;;24.40;5.90;;;;;;;;;;5053695;28;20409;-55
2022/01/30 14:25:07;;;;;;;16.00;6.30;;;;;;;;;;5053671;28;20494;-61
2022/01/30 14:27:37;;;;;;;16.03;4.63;;;;;;;;;;5053604;28;20467;-64
2022/01/30 14:30:04;;;;;;;13.03;5.53;;;;;;;;;;5053599;28;20414;-64
2022/01/30 14:32:31;;;;;;;21.27;5.90;;;;;;;;;;5053730;28;20465;-58
2022/01/30 14:34:57;;;;;;;26.87;5.90;;;;;;;;;;5053597;28;20416;-58
2022/01/30 14:37:23;;;;;;;25.27;6.00;;;;;;;;;;5053559;28;20446;-62
2022/01/30 14:39:56;;;;;;;20.10;6.17;;;;;;;;;;5053932;28;20618;-61
2022/01/30 14:42:22;;;;;;;23.80;7.33;;;;;;;;;;5052088;28;20451;-56
2022/01/30 14:44:48;;;;;;;24.43;6.47;;;;;;;;;;5053485;28;20451;-60
2022/01/30 14:47:14;;;;;;;27.53;6.20;;;;;;;;;;5053367;28;20977;-59
2022/01/30 14:49:41;;;;;;;23.13;6.07;;;;;;;;;;5051855;28;20420;-58
2022/01/30 14:52:08;;;;;;;23.53;5.83;;;;;;;;;;5053359;28;20790;-60
2022/01/30 14:54:34;;;;;;;23.13;5.60;;;;;;;;;;5053182;28;20419;-61
2022/01/30 14:57:01;;;;;;;17.33;5.97;;;;;;;;;;5053157;28;20415;-64
2022/01/30 14:59:28;;;;;;;19.30;5.80;;;;;;;;;;5053183;28;20927;-60
2022/01/30 15:01:54;;;;;;;20.80;5.13;;;;;;;;;;5052436;28;20546;-57
2022/01/30 15:04:20;;;;;;;14.17;6.40;;;;;;;;;;5053285;28;20860;-64
2022/01/30 15:06:46;;;;;;;22.17;7.40;;;;;;;;;;5053225;28;20426;-58
2022/01/30 15:09:12;;;;;;;15.27;5.70;;;;;;;;;;5052682;28;20408;-55
2022/01/30 15:11:38;;;;;;;28.13;6.90;;;;;;;;;;5052740;28;20418;-54
2022/01/30 15:14:05;;;;;;;12.03;5.80;;;;;;;;;;5052775;28;20427;-55
2022/01/30 15:16:49;;;;;;;18.60;5.70;;;;;;;;;;5052912;28;20416;-59
2022/01/30 15:19:16;;;;;;;27.60;6.70;;;;;;;;;;5052694;28;20996;-55
2022/01/30 15:21:43;;;;;;;32.30;6.50;;;;;;;;;;5051201;28;20447;-55
2022/01/30 15:24:10;;;;;;;16.20;4.80;;;;;;;;;;5052352;28;20554;-54
2022/01/30 15:26:36;;;;;;;23.87;5.87;;;;;;;;;;5052507;28;20410;-59
2022/01/30 15:29:03;;;;;;;14.67;4.20;;;;;;;;;;5052559;28;20423;-54
2022/01/30 15:31:29;;;;;;;26.57;6.70;;;;;;;;;;5052436;28;20412;-56
2022/01/30 15:33:56;;;;;;;28.73;7.47;;;;;;;;;;5052394;28;20408;-55
2022/01/30 15:36:22;;;;;;;22.13;6.60;;;;;;;;;;5051114;28;20444;-57
2022/01/30 15:38:50;;;;;;;35.00;5.73;;;;;;;;;;5052595;28;20983;-54